KLVS

Las Vegas Municipal Airport

Las Vegas, New Mexico, USA
KLVS 200525Z 2006/2106 32008KT P6SM BKN250 FM201900 23012G20KT P6SM BKN250 FM210100 24010KT P6SM SCT250
Issued Valid From Valid To
Jan-20 @ 05:25 UTC
(6 hours ago)
Jan-20 @ 06:00 UTC
(5 hours ago)
Jan-21 @ 06:00 UTC
(in 19 hours)
Jan-20 @ 06:00 to Jan-20 @ 19:00
KLVS 200525Z 2006/2106 32008KT P6SM BKN250
Wind Visibility Clouds
320° at 8 knots Greater than 6 miles
  • Broken at 25,000' AGL
From Jan-20 @ 19:00 to Jan-21 @ 01:00
FM201900 23012G20KT P6SM BKN250
Wind Visibility Clouds
230° at 12 knots
 Gusting to 20 knots
Greater than 6 miles
  • Broken at 25,000' AGL
From Jan-21 @ 01:00 to Jan-21 @ 06:00
FM210100 24010KT P6SM SCT250
Wind Visibility Clouds
240° at 10 knots Greater than 6 miles
  • Scattered at 25,000' AGL
KLVS 200525Z 2006/2106 32008KT P6SM BKN250 FM201900 23012G20KT P6SM BKN250 FM210100 24010KT P6SM SCT250
Issued Jan-20 @ 05:25 UTC
(6 hours ago)
Valid From Jan-20 @ 06:00 UTC
(5 hours ago)
Valid To Jan-21 @ 06:00 UTC
(in 19 hours)
Jan-20 @ 06:00 - Jan-20 @ 19:00
Wind Visibility
320° at 8 knots Greater than 6 miles
Clouds
  • Broken at 25,000' AGL
From Jan-20 @ 19:00 - Jan-21 @ 01:00
Wind Visibility
230° at 12 knots
 Gusting to 20 knots
Greater than 6 miles
Clouds
  • Broken at 25,000' AGL
From Jan-21 @ 01:00 - Jan-21 @ 06:00
Wind Visibility
240° at 10 knots Greater than 6 miles
Clouds
  • Scattered at 25,000' AGL